sensor_id;sensor_type;location;lat;lon;timestamp;pressure;altitude;pressure_sealevel;temperature
51693;BMP280;37777;53.066;21.638;2023-11-19T00:00:43;101272.53;;;0.12
51693;BMP280;37777;53.066;21.638;2023-11-19T00:24:44;101191.81;;;0.07
51693;BMP280;37777;53.066;21.638;2023-11-19T00:48:45;101208.53;;;-0.15
51693;BMP280;37777;53.066;21.638;2023-11-19T00:55:48;101214.19;;;-0.11
51693;BMP280;37777;53.066;21.638;2023-11-19T01:02:50;101180.31;;;-0.16
51693;BMP280;37777;53.066;21.638;2023-11-19T01:09:53;101183.22;;;-0.18
51693;BMP280;37777;53.066;21.638;2023-11-19T02:08:41;101111.34;;;-0.01
51693;BMP280;37777;53.066;21.638;2023-11-19T02:15:43;101095.63;;;-0.02
51693;BMP280;37777;53.066;21.638;2023-11-19T02:31:13;101092.19;;;-0.03
51693;BMP280;37777;53.066;21.638;2023-11-19T02:38:15;101096.19;;;-0.22
51693;BMP280;37777;53.066;21.638;2023-11-19T02:53:39;101060.19;;;-0.30
51693;BMP280;37777;53.066;21.638;2023-11-19T03:18:14;101036.50;;;-0.09
51693;BMP280;37777;53.066;21.638;2023-11-19T03:25:15;101017.09;;;-0.05
51693;BMP280;37777;53.066;21.638;2023-11-19T03:32:17;101012.56;;;-0.04
51693;BMP280;37777;53.066;21.638;2023-11-19T03:47:50;100989.44;;;-0.04
51693;BMP280;37777;53.066;21.638;2023-11-19T03:54:52;100980.63;;;-0.04
51693;BMP280;37777;53.066;21.638;2023-11-19T04:01:56;100963.94;;;0.01
51693;BMP280;37777;53.066;21.638;2023-11-19T04:08:58;100954.66;;;0.03
51693;BMP280;37777;53.066;21.638;2023-11-19T04:16:00;100948.28;;;0.04
51693;BMP280;37777;53.066;21.638;2023-11-19T04:23:01;100943.75;;;0.05
51693;BMP280;37777;53.066;21.638;2023-11-19T04:38:25;100917.13;;;0.05
51693;BMP280;37777;53.066;21.638;2023-11-19T04:45:28;100903.06;;;0.09
51693;BMP280;37777;53.066;21.638;2023-11-19T04:52:31;100870.59;;;0.07
51693;BMP280;37777;53.066;21.638;2023-11-19T04:59:34;100864.69;;;0.05
51693;BMP280;37777;53.066;21.638;2023-11-19T05:06:35;100844.72;;;0.03
51693;BMP280;37777;53.066;21.638;2023-11-19T05:30:27;100812.56;;;0.09
51693;BMP280;37777;53.066;21.638;2023-11-19T05:37:29;100812.34;;;0.11
51693;BMP280;37777;53.066;21.638;2023-11-19T05:44:49;100819.78;;;0.14
51693;BMP280;37777;53.066;21.638;2023-11-19T05:51:50;100803.28;;;0.12
51693;BMP280;37777;53.066;21.638;2023-11-19T05:58:52;100795.59;;;0.15
51693;BMP280;37777;53.066;21.638;2023-11-19T06:05:54;100800.38;;;0.19
51693;BMP280;37777;53.066;21.638;2023-11-19T06:12:58;100805.47;;;0.25
51693;BMP280;37777;53.066;21.638;2023-11-19T06:20:01;100788.19;;;0.28
51693;BMP280;37777;53.066;21.638;2023-11-19T06:27:05;100779.72;;;0.31
51693;BMP280;37777;53.066;21.638;2023-11-19T06:34:06;100773.06;;;0.39
51693;BMP280;37777;53.066;21.638;2023-11-19T06:41:08;100768.53;;;0.39
51693;BMP280;37777;53.066;21.638;2023-11-19T06:48:13;100768.28;;;0.46
51693;BMP280;37777;53.066;21.638;2023-11-19T06:55:14;100751.00;;;0.48
51693;BMP280;37777;53.066;21.638;2023-11-19T07:02:17;100740.38;;;0.54
51693;BMP280;37777;53.066;21.638;2023-11-19T07:09:18;100733.97;;;0.55
51693;BMP280;37777;53.066;21.638;2023-11-19T07:16:26;100729.72;;;0.59
51693;BMP280;37777;53.066;21.638;2023-11-19T07:23:27;100731.09;;;0.66
51693;BMP280;37777;53.066;21.638;2023-11-19T07:30:31;100728.69;;;0.75
51693;BMP280;37777;53.066;21.638;2023-11-19T07:37:32;100695.69;;;0.81
51693;BMP280;37777;53.066;21.638;2023-11-19T07:52:56;100663.19;;;0.90
51693;BMP280;37777;53.066;21.638;2023-11-19T07:59:57;100657.31;;;0.93
51693;BMP280;37777;53.066;21.638;2023-11-19T08:06:59;100646.13;;;1.01
51693;BMP280;37777;53.066;21.638;2023-11-19T08:14:01;100645.06;;;1.17
51693;BMP280;37777;53.066;21.638;2023-11-19T08:21:02;100642.69;;;1.21
51693;BMP280;37777;53.066;21.638;2023-11-19T08:28:06;100644.81;;;1.19
51693;BMP280;37777;53.066;21.638;2023-11-19T08:35:07;100636.00;;;1.24
51693;BMP280;37777;53.066;21.638;2023-11-19T08:42:09;100633.34;;;1.24
51693;BMP280;37777;53.066;21.638;2023-11-19T08:49:11;100620.25;;;1.22
51693;BMP280;37777;53.066;21.638;2023-11-19T08:56:12;100636.00;;;1.24
51693;BMP280;37777;53.066;21.638;2023-11-19T09:03:15;100629.59;;;1.25
51693;BMP280;37777;53.066;21.638;2023-11-19T09:10:17;100607.22;;;1.21
51693;BMP280;37777;53.066;21.638;2023-11-19T09:17:18;100602.66;;;1.31
51693;BMP280;37777;53.066;21.638;2023-11-19T09:24:20;100600.25;;;1.30
51693;BMP280;37777;53.066;21.638;2023-11-19T09:31:21;100592.25;;;1.35
51693;BMP280;37777;53.066;21.638;2023-11-19T09:38:23;100576.81;;;1.32
51693;BMP280;37777;53.066;21.638;2023-11-19T09:45:27;100570.16;;;1.19
51693;BMP280;37777;53.066;21.638;2023-11-19T09:52:29;100562.94;;;1.20
51693;BMP280;37777;53.066;21.638;2023-11-19T09:59:31;100557.63;;;1.20
51693;BMP280;37777;53.066;21.638;2023-11-19T10:06:34;100537.91;;;1.21
51693;BMP280;37777;53.066;21.638;2023-11-19T10:22:04;100501.34;;;1.31
51693;BMP280;37777;53.066;21.638;2023-11-19T10:29:06;100491.50;;;1.32
51693;BMP280;37777;53.066;21.638;2023-11-19T10:36:08;100484.06;;;1.24
51693;BMP280;37777;53.066;21.638;2023-11-19T10:43:10;100481.69;;;1.17
51693;BMP280;37777;53.066;21.638;2023-11-19T10:50:11;100477.13;;;1.23
51693;BMP280;37777;53.066;21.638;2023-11-19T10:57:19;100466.75;;;1.16
51693;BMP280;37777;53.066;21.638;2023-11-19T11:04:25;100455.25;;;1.21
51693;BMP280;37777;53.066;21.638;2023-11-19T11:11:29;100448.59;;;1.18
51693;BMP280;37777;53.066;21.638;2023-11-19T11:18:31;100424.41;;;1.09
51693;BMP280;37777;53.066;21.638;2023-11-19T11:25:52;100415.84;;;1.12
51693;BMP280;37777;53.066;21.638;2023-11-19T11:33:10;100402.25;;;1.09
51693;BMP280;37777;53.066;21.638;2023-11-19T11:40:19;100384.13;;;1.11
51693;BMP280;37777;53.066;21.638;2023-11-19T11:47:21;100360.44;;;1.09
51693;BMP280;37777;53.066;21.638;2023-11-19T12:01:25;100344.94;;;1.16
51693;BMP280;37777;53.066;21.638;2023-11-19T12:08:29;100346.72;;;1.26
51693;BMP280;37777;53.066;21.638;2023-11-19T12:15:32;100332.09;;;1.24
51693;BMP280;37777;53.066;21.638;2023-11-19T12:22:35;100330.47;;;1.28
51693;BMP280;37777;53.066;21.638;2023-11-19T12:29:46;100312.06;;;1.26
51693;BMP280;37777;53.066;21.638;2023-11-19T12:36:47;100317.16;;;1.28
51693;BMP280;37777;53.066;21.638;2023-11-19T12:43:49;100295.25;;;1.31
51693;BMP280;37777;53.066;21.638;2023-11-19T12:50:57;100279.88;;;1.23
51693;BMP280;37777;53.066;21.638;2023-11-19T12:58:00;100268.72;;;1.10
51693;BMP280;37777;53.066;21.638;2023-11-19T13:05:21;100262.63;;;1.05
51693;BMP280;37777;53.066;21.638;2023-11-19T13:12:23;100250.63;;;1.07
51693;BMP280;37777;53.066;21.638;2023-11-19T13:19:24;100239.72;;;1.04
51693;BMP280;37777;53.066;21.638;2023-11-19T13:26:26;100225.13;;;0.96
51693;BMP280;37777;53.066;21.638;2023-11-19T13:33:28;100205.38;;;0.97
51693;BMP280;37777;53.066;21.638;2023-11-19T13:40:30;100201.94;;;0.96
51693;BMP280;37777;53.066;21.638;2023-11-19T13:47:32;100195.56;;;0.92
51693;BMP280;37777;53.066;21.638;2023-11-19T13:54:34;100187.06;;;0.90
51693;BMP280;37777;53.066;21.638;2023-11-19T14:01:35;100182.53;;;0.91
51693;BMP280;37777;53.066;21.638;2023-11-19T14:08:37;100173.97;;;0.94
51693;BMP280;37777;53.066;21.638;2023-11-19T14:15:39;100158.59;;;0.86
51693;BMP280;37777;53.066;21.638;2023-11-19T14:22:41;100159.91;;;0.88
51693;BMP280;37777;53.066;21.638;2023-11-19T14:29:44;100166.84;;;0.89
51693;BMP280;37777;53.066;21.638;2023-11-19T14:36:49;100146.31;;;0.90
51693;BMP280;37777;53.066;21.638;2023-11-19T14:43:51;100129.56;;;0.84
51693;BMP280;37777;53.066;21.638;2023-11-19T14:50:52;100114.91;;;0.87
51693;BMP280;37777;53.066;21.638;2023-11-19T14:57:54;100111.44;;;0.86
51693;BMP280;37777;53.066;21.638;2023-11-19T15:05:08;100104.78;;;0.83
51693;BMP280;37777;53.066;21.638;2023-11-19T15:12:14;100099.75;;;0.82
51693;BMP280;37777;53.066;21.638;2023-11-19T15:19:17;100089.91;;;0.82
51693;BMP280;37777;53.066;21.638;2023-11-19T15:26:18;100093.63;;;0.81
51693;BMP280;37777;53.066;21.638;2023-11-19T15:33:23;100094.94;;;0.84
51693;BMP280;37777;53.066;21.638;2023-11-19T15:40:24;100084.56;;;0.82
51693;BMP280;37777;53.066;21.638;2023-11-19T15:47:26;100082.69;;;0.83
51693;BMP280;37777;53.066;21.638;2023-11-19T15:54:28;100082.97;;;0.81
51693;BMP280;37777;53.066;21.638;2023-11-19T16:01:30;100085.06;;;0.84
51693;BMP280;37777;53.066;21.638;2023-11-19T16:08:32;100081.34;;;0.86
51693;BMP280;37777;53.066;21.638;2023-11-19T16:15:33;100070.97;;;0.84
51693;BMP280;37777;53.066;21.638;2023-11-19T16:22:37;100069.09;;;0.84
51693;BMP280;37777;53.066;21.638;2023-11-19T16:29:39;100070.16;;;0.83
51693;BMP280;37777;53.066;21.638;2023-11-19T16:36:41;100068.31;;;0.84
51693;BMP280;37777;53.066;21.638;2023-11-19T16:43:43;100067.22;;;0.85
51693;BMP280;37777;53.066;21.638;2023-11-19T16:50:44;100067.50;;;0.83
51693;BMP280;37777;53.066;21.638;2023-11-19T16:58:04;100054.97;;;0.84
51693;BMP280;37777;53.066;21.638;2023-11-19T17:05:06;100060.31;;;0.84
51693;BMP280;37777;53.066;21.638;2023-11-19T17:12:08;100062.97;;;0.84
51693;BMP280;37777;53.066;21.638;2023-11-19T17:19:10;100046.19;;;0.83
51693;BMP280;37777;53.066;21.638;2023-11-19T17:26:12;100042.44;;;0.84
51693;BMP280;37777;53.066;21.638;2023-11-19T17:33:13;100033.38;;;0.86
51693;BMP280;37777;53.066;21.638;2023-11-19T17:40:15;100013.16;;;0.84
51693;BMP280;37777;53.066;21.638;2023-11-19T17:47:18;100013.16;;;0.84
51693;BMP280;37777;53.066;21.638;2023-11-19T17:54:21;100009.41;;;0.86
51693;BMP280;37777;53.066;21.638;2023-11-19T18:01:23;100007.78;;;0.90
51693;BMP280;37777;53.066;21.638;2023-11-19T18:08:25;99983.28;;;0.88
51693;BMP280;37777;53.066;21.638;2023-11-19T18:15:26;99981.13;;;0.90
51693;BMP280;37777;53.066;21.638;2023-11-19T18:22:28;99974.22;;;0.89
51693;BMP280;37777;53.066;21.638;2023-11-19T18:29:32;99966.94;;;0.94
51693;BMP280;37777;53.066;21.638;2023-11-19T18:36:36;99956.59;;;0.93
51693;BMP280;37777;53.066;21.638;2023-11-19T18:43:38;99952.84;;;0.94
51693;BMP280;37777;53.066;21.638;2023-11-19T18:50:40;99952.28;;;0.97
51693;BMP280;37777;53.066;21.638;2023-11-19T18:57:45;99949.34;;;0.98
51693;BMP280;37777;53.066;21.638;2023-11-19T19:04:46;99940.53;;;0.98
51693;BMP280;37777;53.066;21.638;2023-11-19T19:11:48;99937.31;;;1.01
51693;BMP280;37777;53.066;21.638;2023-11-19T19:18:50;99933.56;;;1.02
51693;BMP280;37777;53.066;21.638;2023-11-19T19:25:52;99932.50;;;1.03
51693;BMP280;37777;53.066;21.638;2023-11-19T19:32:55;99929.84;;;1.03
51693;BMP280;37777;53.066;21.638;2023-11-19T19:39:57;99922.38;;;1.05
51693;BMP280;37777;53.066;21.638;2023-11-19T19:46:59;99909.53;;;1.07
51693;BMP280;37777;53.066;21.638;2023-11-19T19:54:00;99906.09;;;1.07
51693;BMP280;37777;53.066;21.638;2023-11-19T20:01:02;99898.66;;;1.04
51693;BMP280;37777;53.066;21.638;2023-11-19T20:08:04;99902.84;;;1.10
51693;BMP280;37777;53.066;21.638;2023-11-19T20:15:08;99898.59;;;1.09
51693;BMP280;37777;53.066;21.638;2023-11-19T20:22:10;99895.63;;;1.10
51693;BMP280;37777;53.066;21.638;2023-11-19T20:29:12;99895.94;;;1.09
51693;BMP280;37777;53.066;21.638;2023-11-19T20:36:13;99889.53;;;1.10
51693;BMP280;37777;53.066;21.638;2023-11-19T20:43:16;99868.22;;;1.10
51693;BMP280;37777;53.066;21.638;2023-11-19T20:50:18;99865.53;;;1.10
51693;BMP280;37777;53.066;21.638;2023-11-19T20:57:23;99867.38;;;1.14
51693;BMP280;37777;53.066;21.638;2023-11-19T21:04:25;99881.47;;;1.15
51693;BMP280;37777;53.066;21.638;2023-11-19T21:11:26;99873.47;;;1.15
51693;BMP280;37777;53.066;21.638;2023-11-19T21:18:28;99859.38;;;1.14
51693;BMP280;37777;53.066;21.638;2023-11-19T21:25:31;99848.19;;;1.12
51693;BMP280;37777;53.066;21.638;2023-11-19T21:32:33;99857.25;;;1.11
51693;BMP280;37777;53.066;21.638;2023-11-19T21:39:35;99853.81;;;1.11
51693;BMP280;37777;53.066;21.638;2023-11-19T21:46:40;99848.78;;;1.09
51693;BMP280;37777;53.066;21.638;2023-11-19T21:53:41;99841.28;;;1.11
51693;BMP280;37777;53.066;21.638;2023-11-19T22:00:43;99820.75;;;1.12
51693;BMP280;37777;53.066;21.638;2023-11-19T22:07:45;99829.00;;;1.10
51693;BMP280;37777;53.066;21.638;2023-11-19T22:14:46;99827.16;;;1.11
51693;BMP280;37777;53.066;21.638;2023-11-19T22:21:48;99805.31;;;1.09
51693;BMP280;37777;53.066;21.638;2023-11-19T22:28:50;99806.91;;;1.10
51693;BMP280;37777;53.066;21.638;2023-11-19T22:35:51;99803.97;;;1.11
51693;BMP280;37777;53.066;21.638;2023-11-19T22:42:52;99804.53;;;1.08
51693;BMP280;37777;53.066;21.638;2023-11-19T22:49:57;99805.63;;;1.07
51693;BMP280;37777;53.066;21.638;2023-11-19T22:56:59;99790.69;;;1.06
51693;BMP280;37777;53.066;21.638;2023-11-19T23:04:00;99794.19;;;1.07
51693;BMP280;37777;53.066;21.638;2023-11-19T23:11:02;99786.75;;;1.04
51693;BMP280;37777;53.066;21.638;2023-11-19T23:18:04;99792.28;;;1.07
51693;BMP280;37777;53.066;21.638;2023-11-19T23:25:07;99790.69;;;1.06
51693;BMP280;37777;53.066;21.638;2023-11-19T23:32:09;99781.63;;;1.07
51693;BMP280;37777;53.066;21.638;2023-11-19T23:39:10;99790.22;;;1.04
51693;BMP280;37777;53.066;21.638;2023-11-19T23:46:13;99792.06;;;1.04
51693;BMP280;37777;53.066;21.638;2023-11-19T23:53:15;99793.44;;;1.01
